Kirkwood, CA (95646)

12:05 AM PDT on September 18, 2014 (GMT -0700)
North Upper Truckee | Change Station
CLOSE
Current Station
Personal Weather Station
Location: South Lake Tahoe, CA
Elevation: 6549 ft
Nearby Weather Stations

Elev 6549 ft 38.86 °N, 120.04 °W | Updated 4 seconds ago

Clear
Clear
61.0 °F
Feels Like 61.0 °F
N
0.0
Wind Variable Wind from SSE
Gusts 5.0 mph

Today
High -- | Low -- °F
--% Chance of Precip.
Yesterday
High -- | Low -- °F
Precip. -- in
6:44 AM 7:03 PM
Waning Crescent, 29% visible
Pressure 29.75 in
Visibility 10.0 miles
Clouds Clear
Dew Point 40 °F
Humidity 47%
Rainfall 0.00 in
Snow Depth Not available.
UV 0 out of 12
Pollen 6.20 out of 12
Ozone Good
Flu Activity Not available.
METAR KTVL 180653Z AUTO 20010G16KT 10SM CLR 18/03 A2998 RMK AO2 SLP074 T01830033

More Conditions Fewer Conditions

Pressure 29.75 in
Visibility 10.0 miles
Clouds Clear
Dew Point 40 °F
Humidity 47%
Rainfall 0.00 in
Snow Depth Not available.
UV 0 out of 12
Pollen 6.20 out of 12
Ozone Good
Flu Activity Not available.
METAR KTVL 180653Z AUTO 20010G16KT 10SM CLR 18/03 A2998 RMK AO2 SLP074 T01830033

More Conditions Fewer Conditions

10-Day Weather Forecast

Almanac

Astronomy

Sep. 18, 2014 Rise Set
Actual Time 6:44 AM PDT 7:03 PM PDT
Civil Twilight 6:17 AM PDT 7:30 PM PDT
Nautical Twilight 5:46 AM PDT 8:01 PM PDT
Astronomical Twilight 5:14 AM PDT 8:32 PM PDT
Moon 1:43 AM PDT 3:55 PM PDT
Length of Visible Light 13h 12m
Length of Day
12h 19m
Tomorrow will be 2m 29s shorter.
Waning Crescent, 29% of the Moon is Illuminated
Today
Waning Crescent
Sep 24
New
Oct 1
First Quarter
Oct 8
Full
Oct 15
Last Quarter

Community

WunderPhotos

Upload Photos

1,754,298 photos uploaded!

Nearby

Air Quality

  Air Quality AQ Index Pollutant
Yesterday Good
OZONE
Current Good
OZONE

Snow Depth

Station Depth Elevation
Leavitt Meadows 1 in 7200 ft
Monitor Pass 1 in 8350 ft
Summit Meadow 0 in 9122 ft
Spratt Creek 0 in 6200 ft
Tahoe City Cross 0 in 6750 ft

Earthquake Activity

City Distance Mag. Time & Date
No recent earthquake activity has been reported nearby.
Minimum magnitude displayed is 2.5.

Coastal Water Temperatures

Place Temperature
No Stations Reporting

Nearby Weather Stations